Time;durP1;ratioP1;P1;durP2;ratioP2;P2;SDS_P1;SDS_P2;PMS_P1;PMS_P2;Temp;Humidity;BMP_temperature;BMP_pressure;BME280_temperature;BME280_humidity;BME280_pressure;Samples;Min_cycle;Max_cycle;Signal;HPM_P1;HPM_P2
2024/03/06 00:00:38;;;;;;;6.45;4.10;;;;;;;;;;2102763;28;20024;-77
2024/03/06 00:01:57;;;;;;;6.88;4.47;;;;;;;;;;2104438;28;20032;-76
2024/03/06 00:03:17;;;;;;;6.32;3.75;;;;;;;;;;2103783;28;20032;-75
2024/03/06 00:04:37;;;;;;;9.55;4.20;;;;;;;;;;2104209;28;20044;-75
2024/03/06 00:05:57;;;;;;;10.93;3.85;;;;;;;;;;2104622;28;20056;-75
2024/03/06 00:07:17;;;;;;;6.95;3.83;;;;;;;;;;2105201;28;20028;-76
2024/03/06 00:08:37;;;;;;;6.68;4.20;;;;;;;;;;2095730;28;20568;-76
2024/03/06 00:09:56;;;;;;;8.85;4.35;;;;;;;;;;2100721;28;20444;-77
2024/03/06 00:11:15;;;;;;;5.82;3.95;;;;;;;;;;2100924;28;20500;-76
2024/03/06 00:12:34;;;;;;;5.15;4.25;;;;;;;;;;2102951;28;20427;-76
2024/03/06 00:13:53;;;;;;;8.23;3.90;;;;;;;;;;2104944;28;20036;-77
2024/03/06 00:15:12;;;;;;;4.95;3.53;;;;;;;;;;2096645;28;20551;-76
2024/03/06 00:16:31;;;;;;;5.05;3.53;;;;;;;;;;2100917;28;20036;-76
2024/03/06 00:17:50;;;;;;;4.95;3.78;;;;;;;;;;2095099;28;20040;-76
2024/03/06 00:19:09;;;;;;;5.75;3.97;;;;;;;;;;2092385;28;20036;-76
2024/03/06 00:20:28;;;;;;;7.70;3.83;;;;;;;;;;2100625;28;20434;-76
2024/03/06 00:21:47;;;;;;;5.85;4.10;;;;;;;;;;2104113;28;20768;-76
2024/03/06 00:23:06;;;;;;;7.32;4.05;;;;;;;;;;2093242;28;20029;-77
2024/03/06 00:24:25;;;;;;;7.60;3.95;;;;;;;;;;2099940;28;20028;-77
2024/03/06 00:25:44;;;;;;;12.27;3.83;;;;;;;;;;2103874;28;20024;-75
2024/03/06 00:27:04;;;;;;;5.63;3.97;;;;;;;;;;2095433;28;20032;-77
2024/03/06 00:28:24;;;;;;;7.03;3.58;;;;;;;;;;2101709;28;20024;-75
2024/03/06 00:29:42;;;;;;;5.55;3.92;;;;;;;;;;2105303;28;20106;-76
2024/03/06 00:31:02;;;;;;;5.57;4.30;;;;;;;;;;2095873;28;20037;-77
2024/03/06 00:32:23;;;;;;;8.27;4.05;;;;;;;;;;2102094;28;20686;-76
2024/03/06 00:33:42;;;;;;;6.60;3.65;;;;;;;;;;2096204;28;20451;-76
2024/03/06 00:35:01;;;;;;;8.50;4.40;;;;;;;;;;2100183;28;20488;-76
2024/03/06 00:36:20;;;;;;;10.80;4.03;;;;;;;;;;2104046;28;20028;-76
2024/03/06 00:37:39;;;;;;;8.15;3.92;;;;;;;;;;2104961;28;20027;-77
2024/03/06 00:38:58;;;;;;;8.02;4.18;;;;;;;;;;2104863;28;20028;-76
2024/03/06 00:40:18;;;;;;;7.30;3.78;;;;;;;;;;2105671;28;20485;-77
2024/03/06 00:41:37;;;;;;;6.50;3.83;;;;;;;;;;2105137;28;20036;-76
2024/03/06 00:42:56;;;;;;;5.88;3.83;;;;;;;;;;2106691;28;20036;-76
2024/03/06 00:44:16;;;;;;;7.25;3.08;;;;;;;;;;2095346;28;20068;-76
2024/03/06 00:45:36;;;;;;;11.35;3.85;;;;;;;;;;2103257;28;20020;-75
2024/03/06 00:46:56;;;;;;;7.40;3.88;;;;;;;;;;2106684;28;20095;-76
2024/03/06 00:48:16;;;;;;;6.38;3.63;;;;;;;;;;2106202;28;20480;-76
2024/03/06 00:49:35;;;;;;;7.28;3.53;;;;;;;;;;2097753;28;20033;-77
2024/03/06 00:50:54;;;;;;;7.22;3.80;;;;;;;;;;2100844;28;20107;-76
2024/03/06 00:52:13;;;;;;;8.55;3.65;;;;;;;;;;2105600;28;20028;-76
2024/03/06 00:53:32;;;;;;;6.95;3.67;;;;;;;;;;2106179;28;20569;-75
2024/03/06 00:54:51;;;;;;;11.55;3.83;;;;;;;;;;2105552;28;20422;-76
2024/03/06 00:56:10;;;;;;;7.40;3.45;;;;;;;;;;2106696;28;20787;-76
2024/03/06 00:57:29;;;;;;;6.53;3.67;;;;;;;;;;2106143;28;20036;-76
2024/03/06 00:58:48;;;;;;;7.18;3.72;;;;;;;;;;2106434;28;20024;-76
2024/03/06 01:00:10;;;;;;;10.52;3.83;;;;;;;;;;2100468;28;20135;-75
2024/03/06 01:01:29;;;;;;;5.40;3.60;;;;;;;;;;2095229;28;20029;-78
2024/03/06 01:02:47;;;;;;;10.50;3.90;;;;;;;;;;2101579;28;20029;-75
2024/03/06 01:04:07;;;;;;;7.15;3.70;;;;;;;;;;2106455;28;20028;-75
2024/03/06 01:05:25;;;;;;;4.88;3.20;;;;;;;;;;2097083;28;20048;-78
2024/03/06 01:06:45;;;;;;;4.95;3.35;;;;;;;;;;2102919;28;20055;-76
2024/03/06 01:08:05;;;;;;;3.47;3.17;;;;;;;;;;2096356;28;20099;-75
2024/03/06 01:09:27;;;;;;;4.55;3.70;;;;;;;;;;2102327;28;20533;-76
2024/03/06 01:10:46;;;;;;;6.05;3.33;;;;;;;;;;2094767;28;20029;-75
2024/03/06 01:12:05;;;;;;;6.28;3.58;;;;;;;;;;2101052;28;20072;-76
2024/03/06 01:13:24;;;;;;;6.53;3.67;;;;;;;;;;2105841;28;20103;-75
2024/03/06 01:14:43;;;;;;;9.27;3.78;;;;;;;;;;2104546;28;20016;-76
2024/03/06 01:16:02;;;;;;;8.15;4.13;;;;;;;;;;2106331;28;20095;-76
2024/03/06 01:17:22;;;;;;;4.75;3.42;;;;;;;;;;2105939;28;20032;-76
2024/03/06 01:18:41;;;;;;;8.00;3.40;;;;;;;;;;2105668;28;20024;-77
2024/03/06 01:20:01;;;;;;;6.45;3.20;;;;;;;;;;2096854;28;20068;-76
2024/03/06 01:21:20;;;;;;;5.25;3.67;;;;;;;;;;2094405;28;20393;-76
2024/03/06 01:22:40;;;;;;;8.95;3.78;;;;;;;;;;2089643;28;20033;-76
2024/03/06 01:24:00;;;;;;;6.28;4.10;;;;;;;;;;2101195;28;20021;-76
2024/03/06 01:25:19;;;;;;;5.47;3.60;;;;;;;;;;2105909;28;20020;-76
2024/03/06 01:26:40;;;;;;;7.45;4.15;;;;;;;;;;2105964;28;20020;-76
2024/03/06 01:27:58;;;;;;;7.38;3.50;;;;;;;;;;2103819;28;20123;-77
2024/03/06 01:29:18;;;;;;;6.93;3.47;;;;;;;;;;2106302;28;20024;-76
2024/03/06 01:30:37;;;;;;;8.57;3.80;;;;;;;;;;2094574;28;20575;-75
2024/03/06 01:31:55;;;;;;;7.45;3.85;;;;;;;;;;2101399;28;20024;-76
2024/03/06 01:33:14;;;;;;;8.70;4.22;;;;;;;;;;2106317;28;20024;-76
2024/03/06 01:34:33;;;;;;;5.40;4.10;;;;;;;;;;2105980;28;20024;-76
2024/03/06 01:35:52;;;;;;;9.98;4.07;;;;;;;;;;2105815;28;20393;-76
2024/03/06 01:37:11;;;;;;;8.18;3.65;;;;;;;;;;2105910;28;20036;-76
2024/03/06 01:38:30;;;;;;;5.93;3.30;;;;;;;;;;2097363;28;20016;-77
2024/03/06 01:39:49;;;;;;;6.47;4.03;;;;;;;;;;2103688;28;20020;-76
2024/03/06 01:41:08;;;;;;;7.28;3.88;;;;;;;;;;2106088;28;20499;-76
2024/03/06 01:42:28;;;;;;;8.40;3.97;;;;;;;;;;2106526;28;20404;-75
2024/03/06 01:43:47;;;;;;;10.95;3.42;;;;;;;;;;2097910;28;20025;-75
2024/03/06 01:45:07;;;;;;;7.38;4.20;;;;;;;;;;2103058;28;20028;-76
2024/03/06 01:46:26;;;;;;;5.50;3.97;;;;;;;;;;2095180;28;20489;-81
2024/03/06 01:47:44;;;;;;;5.82;3.47;;;;;;;;;;2102003;28;20106;-79
2024/03/06 01:49:04;;;;;;;13.00;3.42;;;;;;;;;;2096585;28;20017;-80
2024/03/06 01:50:23;;;;;;;12.23;3.58;;;;;;;;;;2102711;28;20032;-80
2024/03/06 01:51:44;;;;;;;9.88;3.90;;;;;;;;;;2105942;28;20110;-80
2024/03/06 01:53:03;;;;;;;7.45;3.60;;;;;;;;;;2105565;28;20119;-80
2024/03/06 01:54:22;;;;;;;7.72;3.85;;;;;;;;;;2105906;28;20045;-80
2024/03/06 01:55:41;;;;;;;6.78;4.18;;;;;;;;;;2106145;28;20489;-79
2024/03/06 01:57:03;;;;;;;7.70;4.10;;;;;;;;;;2106145;28;20527;-79
2024/03/06 01:58:22;;;;;;;9.32;3.90;;;;;;;;;;2105319;28;20451;-80
2024/03/06 01:59:41;;;;;;;7.65;4.15;;;;;;;;;;2106139;28;20068;-80
2024/03/06 02:01:01;;;;;;;6.28;4.07;;;;;;;;;;2106158;28;20481;-80
2024/03/06 02:02:20;;;;;;;9.88;4.70;;;;;;;;;;2105996;28;20091;-80
2024/03/06 02:03:39;;;;;;;6.78;3.95;;;;;;;;;;2105756;28;20032;-80
2024/03/06 02:04:59;;;;;;;9.45;3.70;;;;;;;;;;2096837;28;20025;-80
2024/03/06 02:06:21;;;;;;;11.07;4.68;;;;;;;;;;2100919;28;20477;-79
2024/03/06 02:07:42;;;;;;;9.65;4.28;;;;;;;;;;2105898;28;20024;-80
2024/03/06 02:09:01;;;;;;;7.90;4.65;;;;;;;;;;2106139;28;20111;-80
2024/03/06 02:10:20;;;;;;;8.38;4.50;;;;;;;;;;2106137;28;20032;-80
2024/03/06 02:11:41;;;;;;;10.40;4.45;;;;;;;;;;2096980;28;20452;-80
2024/03/06 02:13:00;;;;;;;8.50;4.43;;;;;;;;;;2103151;28;20427;-80
2024/03/06 02:14:20;;;;;;;8.20;4.90;;;;;;;;;;2096381;28;20037;-81
2024/03/06 02:15:39;;;;;;;8.05;4.15;;;;;;;;;;2087544;28;20032;-79
2024/03/06 02:16:58;;;;;;;13.43;4.80;;;;;;;;;;2101085;28;20032;-80
2024/03/06 02:18:18;;;;;;;9.38;4.35;;;;;;;;;;2107090;28;20501;-80
2024/03/06 02:19:41;;;;;;;5.10;4.60;;;;;;;;;;2105687;28;20115;-81
2024/03/06 02:20:59;;;;;;;7.15;4.13;;;;;;;;;;2096842;28;20036;-80
2024/03/06 02:22:18;;;;;;;10.80;5.25;;;;;;;;;;2102007;28;20028;-80
2024/03/06 02:23:38;;;;;;;8.93;5.03;;;;;;;;;;2104470;28;20397;-79
2024/03/06 02:24:57;;;;;;;11.70;4.78;;;;;;;;;;2104612;28;20756;-79
2024/03/06 02:26:16;;;;;;;10.20;5.43;;;;;;;;;;2106201;28;20103;-80
2024/03/06 02:27:35;;;;;;;7.93;4.57;;;;;;;;;;2105782;28;20100;-81
2024/03/06 02:28:54;;;;;;;8.45;4.63;;;;;;;;;;2106014;28;20509;-80
2024/03/06 02:30:19;;;;;;;9.50;4.93;;;;;;;;;;2105423;28;20024;-79
2024/03/06 02:31:39;;;;;;;9.68;5.25;;;;;;;;;;2096268;28;20026;-80
2024/03/06 02:32:58;;;;;;;10.57;4.97;;;;;;;;;;2099918;28;20182;-77
2024/03/06 02:34:17;;;;;;;17.05;5.72;;;;;;;;;;2104052;28;20032;-79
2024/03/06 02:35:36;;;;;;;10.73;5.05;;;;;;;;;;2097224;28;20478;-79
2024/03/06 02:36:55;;;;;;;11.20;5.60;;;;;;;;;;2102296;28;20032;-79
2024/03/06 02:38:14;;;;;;;7.97;5.13;;;;;;;;;;2105494;28;20021;-79
2024/03/06 02:39:33;;;;;;;10.10;5.03;;;;;;;;;;2105320;28;20555;-80
2024/03/06 02:40:52;;;;;;;9.40;5.15;;;;;;;;;;2105601;28;21215;-78
2024/03/06 02:42:11;;;;;;;10.07;5.28;;;;;;;;;;2104368;28;20032;-80
2024/03/06 02:43:32;;;;;;;11.68;5.75;;;;;;;;;;2105807;28;20107;-79
2024/03/06 02:44:51;;;;;;;12.02;5.40;;;;;;;;;;2097094;28;20557;-81
2024/03/06 02:46:10;;;;;;;12.80;5.78;;;;;;;;;;2101618;28;20060;-80
2024/03/06 02:47:29;;;;;;;10.40;6.05;;;;;;;;;;2104279;28;20024;-79
2024/03/06 02:48:48;;;;;;;16.13;6.03;;;;;;;;;;2104916;28;20032;-80
2024/03/06 02:50:07;;;;;;;11.45;5.63;;;;;;;;;;2104879;28;20016;-80
2024/03/06 02:51:26;;;;;;;12.35;6.53;;;;;;;;;;2106148;28;20028;-79
2024/03/06 02:52:45;;;;;;;7.38;5.07;;;;;;;;;;2104694;28;20040;-80
2024/03/06 02:54:04;;;;;;;12.27;5.65;;;;;;;;;;2104359;28;20047;-80
2024/03/06 02:55:24;;;;;;;10.10;5.95;;;;;;;;;;2096507;28;20033;-80
2024/03/06 02:56:43;;;;;;;11.65;5.88;;;;;;;;;;2095575;28;20115;-75
2024/03/06 02:58:02;;;;;;;8.70;5.35;;;;;;;;;;2093194;28;20041;-75
2024/03/06 02:59:21;;;;;;;9.40;5.85;;;;;;;;;;2096494;28;20424;-75
2024/03/06 03:00:41;;;;;;;8.38;5.40;;;;;;;;;;2091477;28;21456;-76
2024/03/06 03:02:00;;;;;;;12.05;5.72;;;;;;;;;;2092586;28;20036;-76
2024/03/06 03:03:19;;;;;;;11.93;5.50;;;;;;;;;;2101649;28;20466;-76
2024/03/06 03:04:39;;;;;;;7.68;5.28;;;;;;;;;;2104280;28;20474;-77
2024/03/06 03:05:57;;;;;;;7.50;4.97;;;;;;;;;;2096029;28;20020;-75
2024/03/06 03:07:16;;;;;;;7.18;4.97;;;;;;;;;;2100248;28;20028;-75
2024/03/06 03:08:37;;;;;;;8.95;5.65;;;;;;;;;;2105351;28;20544;-76
2024/03/06 03:09:56;;;;;;;8.05;5.55;;;;;;;;;;2106294;28;20049;-76
2024/03/06 03:11:15;;;;;;;13.15;5.57;;;;;;;;;;2102413;28;20024;-76
2024/03/06 03:12:34;;;;;;;12.65;5.63;;;;;;;;;;2102176;28;20032;-75
2024/03/06 03:13:53;;;;;;;10.55;5.85;;;;;;;;;;2104036;28;20114;-76
2024/03/06 03:15:12;;;;;;;9.75;5.53;;;;;;;;;;2096201;28;20032;-75
2024/03/06 03:16:32;;;;;;;9.10;5.72;;;;;;;;;;2100845;28;20095;-75
2024/03/06 03:17:51;;;;;;;14.98;5.85;;;;;;;;;;2104784;28;20032;-75
2024/03/06 03:19:10;;;;;;;10.40;6.15;;;;;;;;;;2103602;28;20032;-75
2024/03/06 03:20:29;;;;;;;13.57;6.13;;;;;;;;;;2104223;28;20032;-75
2024/03/06 03:21:48;;;;;;;8.02;4.93;;;;;;;;;;2104801;28;20036;-75
2024/03/06 03:23:11;;;;;;;9.23;5.35;;;;;;;;;;2093472;28;20036;-75
2024/03/06 03:24:30;;;;;;;9.27;6.05;;;;;;;;;;2102134;28;20044;-74
2024/03/06 03:25:49;;;;;;;7.85;5.55;;;;;;;;;;2104736;28;20051;-75
2024/03/06 03:27:08;;;;;;;10.50;5.93;;;;;;;;;;2102543;28;20016;-76
2024/03/06 03:28:27;;;;;;;9.90;5.55;;;;;;;;;;2095318;28;20056;-75
2024/03/06 03:29:46;;;;;;;11.52;5.60;;;;;;;;;;2101623;28;20028;-75
2024/03/06 03:31:06;;;;;;;8.57;5.30;;;;;;;;;;2104183;28;20032;-76
2024/03/06 03:32:26;;;;;;;10.85;5.47;;;;;;;;;;2104688;28;20024;-75
2024/03/06 03:33:45;;;;;;;11.15;6.47;;;;;;;;;;2101760;28;20028;-76
2024/03/06 03:35:07;;;;;;;11.00;5.97;;;;;;;;;;2104030;28;20051;-76
2024/03/06 03:36:26;;;;;;;10.98;5.70;;;;;;;;;;2103933;28;20481;-75
2024/03/06 03:37:44;;;;;;;8.15;5.10;;;;;;;;;;2095738;28;20032;-76
2024/03/06 03:39:03;;;;;;;15.05;5.72;;;;;;;;;;2092413;28;20040;-75
2024/03/06 03:40:22;;;;;;;10.25;5.47;;;;;;;;;;2100795;28;20278;-76
2024/03/06 03:41:46;;;;;;;11.93;5.80;;;;;;;;;;2104946;28;20111;-76
2024/03/06 03:43:06;;;;;;;11.95;6.35;;;;;;;;;;2093064;28;20029;-75
2024/03/06 03:44:25;;;;;;;18.52;6.63;;;;;;;;;;2100291;28;20044;-76
2024/03/06 03:45:44;;;;;;;9.10;6.18;;;;;;;;;;2105007;28;20024;-75
2024/03/06 03:47:04;;;;;;;11.90;5.50;;;;;;;;;;2096092;28;20433;-75
2024/03/06 03:48:23;;;;;;;9.90;6.00;;;;;;;;;;2100596;28;20033;-75
2024/03/06 03:49:42;;;;;;;14.88;6.47;;;;;;;;;;2104441;28;20054;-74
2024/03/06 03:51:02;;;;;;;13.68;5.72;;;;;;;;;;2095619;28;20021;-74
2024/03/06 03:52:22;;;;;;;11.00;5.82;;;;;;;;;;2102105;28;20444;-75
2024/03/06 03:53:41;;;;;;;13.30;6.30;;;;;;;;;;2103829;28;20492;-75
2024/03/06 03:55:00;;;;;;;12.95;5.72;;;;;;;;;;2104257;28;20027;-75
2024/03/06 03:56:19;;;;;;;15.55;5.20;;;;;;;;;;2103989;28;20032;-75
2024/03/06 03:57:38;;;;;;;11.10;5.82;;;;;;;;;;2096491;28;20151;-76
2024/03/06 03:58:58;;;;;;;10.50;5.68;;;;;;;;;;2101505;28;20028;-76
2024/03/06 04:00:17;;;;;;;7.20;4.95;;;;;;;;;;2104101;28;20031;-76
2024/03/06 04:01:36;;;;;;;13.68;6.07;;;;;;;;;;2104098;28;20032;-75
2024/03/06 04:02:55;;;;;;;11.60;5.78;;;;;;;;;;2103954;28;20401;-76
2024/03/06 04:04:14;;;;;;;10.15;5.35;;;;;;;;;;2103599;28;20400;-76
2024/03/06 04:05:33;;;;;;;8.20;5.22;;;;;;;;;;2103208;28;20063;-76
2024/03/06 04:06:52;;;;;;;11.65;5.28;;;;;;;;;;2096545;28;20033;-75
2024/03/06 04:08:10;;;;;;;11.10;5.55;;;;;;;;;;2101407;28;20028;-76
2024/03/06 04:09:29;;;;;;;9.35;5.93;;;;;;;;;;2104682;28;20032;-76
2024/03/06 04:10:48;;;;;;;14.20;5.32;;;;;;;;;;2095196;28;20584;-76
2024/03/06 04:12:07;;;;;;;14.95;5.57;;;;;;;;;;2101480;28;20024;-76
2024/03/06 04:13:26;;;;;;;9.05;5.68;;;;;;;;;;2096951;28;20021;-76
2024/03/06 04:14:45;;;;;;;10.65;5.47;;;;;;;;;;2101295;28;20032;-76
2024/03/06 04:16:05;;;;;;;6.72;5.07;;;;;;;;;;2104038;28;20024;-75
2024/03/06 04:17:25;;;;;;;12.88;5.50;;;;;;;;;;2094254;28;20413;-75
2024/03/06 04:18:45;;;;;;;10.38;5.18;;;;;;;;;;2101553;28;20016;-74
2024/03/06 04:20:06;;;;;;;10.95;5.80;;;;;;;;;;2104977;28;20485;-77
2024/03/06 04:21:25;;;;;;;15.20;5.72;;;;;;;;;;2105012;28;20485;-76
2024/03/06 04:22:46;;;;;;;10.95;5.30;;;;;;;;;;2103621;28;20500;-75
2024/03/06 04:24:05;;;;;;;11.45;5.40;;;;;;;;;;2104454;28;20489;-76
2024/03/06 04:25:24;;;;;;;10.93;5.97;;;;;;;;;;2105475;28;20036;-76
2024/03/06 04:26:43;;;;;;;17.35;5.80;;;;;;;;;;2103770;28;20048;-75
2024/03/06 04:28:02;;;;;;;14.05;6.20;;;;;;;;;;2104509;28;20020;-75
2024/03/06 04:29:21;;;;;;;10.25;5.82;;;;;;;;;;2104795;28;20111;-75
2024/03/06 04:30:40;;;;;;;12.38;5.93;;;;;;;;;;2104766;28;20024;-75
2024/03/06 04:31:59;;;;;;;11.98;5.57;;;;;;;;;;2104862;28;20036;-76
2024/03/06 04:33:18;;;;;;;16.20;5.93;;;;;;;;;;2095830;28;20025;-75
2024/03/06 04:34:37;;;;;;;14.55;5.68;;;;;;;;;;2092475;28;20702;-76
2024/03/06 04:35:56;;;;;;;9.63;5.68;;;;;;;;;;2102260;28;20465;-75
2024/03/06 04:37:15;;;;;;;12.15;6.10;;;;;;;;;;2105345;28;20028;-76
2024/03/06 04:38:34;;;;;;;9.63;5.93;;;;;;;;;;2102956;28;20024;-75
2024/03/06 04:39:53;;;;;;;14.98;5.95;;;;;;;;;;2104873;28;20040;-75
2024/03/06 04:41:12;;;;;;;18.10;6.85;;;;;;;;;;2104782;28;20373;-75
2024/03/06 04:42:31;;;;;;;12.55;5.78;;;;;;;;;;2095787;28;20482;-76
2024/03/06 04:43:53;;;;;;;11.80;5.65;;;;;;;;;;2100552;28;20036;-75
2024/03/06 04:45:14;;;;;;;11.32;5.85;;;;;;;;;;2104293;28;20107;-76
2024/03/06 04:46:33;;;;;;;9.02;5.57;;;;;;;;;;2105234;28;20024;-76
2024/03/06 04:47:52;;;;;;;9.50;5.65;;;;;;;;;;2105489;28;20393;-75
2024/03/06 04:49:11;;;;;;;10.50;5.90;;;;;;;;;;2103914;28;20020;-75
2024/03/06 04:50:30;;;;;;;13.73;6.28;;;;;;;;;;2095605;28;20021;-75
2024/03/06 04:51:49;;;;;;;29.75;16.33;;;;;;;;;;2101621;28;20115;-75
2024/03/06 04:53:08;;;;;;;13.23;6.40;;;;;;;;;;2103552;28;20033;-76
2024/03/06 04:54:27;;;;;;;16.02;6.00;;;;;;;;;;2105141;28;20028;-75
2024/03/06 04:55:46;;;;;;;9.80;6.13;;;;;;;;;;2103898;28;20035;-75
2024/03/06 04:57:05;;;;;;;13.27;5.72;;;;;;;;;;2102273;28;20024;-75
2024/03/06 04:58:24;;;;;;;10.13;6.15;;;;;;;;;;2095699;28;20028;-76
2024/03/06 04:59:43;;;;;;;10.10;6.13;;;;;;;;;;2101404;28;20040;-75
2024/03/06 05:01:03;;;;;;;15.77;6.20;;;;;;;;;;2105581;28;20036;-75
2024/03/06 05:02:22;;;;;;;8.18;5.53;;;;;;;;;;2104279;28;20587;-75
2024/03/06 05:03:41;;;;;;;9.40;5.00;;;;;;;;;;2102641;28;21974;-76
2024/03/06 05:05:03;;;;;;;12.73;6.03;;;;;;;;;;2094472;28;20108;-77
2024/03/06 05:06:22;;;;;;;13.82;6.25;;;;;;;;;;2101412;28;20401;-76
2024/03/06 05:07:41;;;;;;;10.07;6.32;;;;;;;;;;2103641;28;20505;-76
2024/03/06 05:09:00;;;;;;;8.55;5.45;;;;;;;;;;2105294;28;20036;-76
2024/03/06 05:10:20;;;;;;;9.98;5.72;;;;;;;;;;2105582;28;20548;-76
2024/03/06 05:11:39;;;;;;;14.20;6.55;;;;;;;;;;2105477;28;20029;-76
2024/03/06 05:12:58;;;;;;;9.63;5.93;;;;;;;;;;2104521;28;20418;-75
2024/03/06 05:14:17;;;;;;;10.32;5.70;;;;;;;;;;2104509;28;20435;-75
2024/03/06 05:15:36;;;;;;;11.93;5.47;;;;;;;;;;2091972;28;20032;-75
2024/03/06 05:16:55;;;;;;;9.02;5.50;;;;;;;;;;2099074;28;20080;-75
2024/03/06 05:18:14;;;;;;;18.00;8.57;;;;;;;;;;2094898;28;20068;-76
2024/03/06 05:19:34;;;;;;;103.25;50.08;;;;;;;;;;2101385;28;20032;-76
2024/03/06 05:20:54;;;;;;;10.55;6.15;;;;;;;;;;2104929;28;20040;-74
2024/03/06 05:22:15;;;;;;;20.38;10.43;;;;;;;;;;2095253;28;20040;-75
2024/03/06 05:23:34;;;;;;;13.68;7.25;;;;;;;;;;2101424;28;20074;-74
2024/03/06 05:24:54;;;;;;;15.13;7.95;;;;;;;;;;2104603;28;20068;-74
2024/03/06 05:26:14;;;;;;;8.00;5.13;;;;;;;;;;2104341;28;20025;-74
2024/03/06 05:27:33;;;;;;;8.10;4.95;;;;;;;;;;2104890;28;20103;-75
2024/03/06 05:28:52;;;;;;;10.35;5.68;;;;;;;;;;2096506;28;20029;-75
2024/03/06 05:30:11;;;;;;;11.57;5.47;;;;;;;;;;2102746;28;20048;-75
2024/03/06 05:31:30;;;;;;;13.50;4.90;;;;;;;;;;2104247;28;20496;-75
2024/03/06 05:32:50;;;;;;;7.65;5.40;;;;;;;;;;2104611;28;20028;-74
2024/03/06 05:34:08;;;;;;;10.27;5.50;;;;;;;;;;2105808;28;20036;-76
2024/03/06 05:35:27;;;;;;;9.23;5.15;;;;;;;;;;2106285;28;20032;-76
2024/03/06 05:36:46;;;;;;;8.48;4.80;;;;;;;;;;2104998;28;20040;-75
2024/03/06 05:38:06;;;;;;;10.82;4.65;;;;;;;;;;2095841;28;20108;-76
2024/03/06 05:39:26;;;;;;;10.70;5.60;;;;;;;;;;2101075;28;20053;-77
2024/03/06 05:40:45;;;;;;;9.35;4.53;;;;;;;;;;2097040;28;20446;-75
2024/03/06 05:42:05;;;;;;;10.68;5.30;;;;;;;;;;2102665;28;20482;-76
2024/03/06 05:43:24;;;;;;;13.68;5.63;;;;;;;;;;2096117;28;20028;-80
2024/03/06 05:44:43;;;;;;;7.07;4.82;;;;;;;;;;2102193;28;20031;-77
2024/03/06 05:46:02;;;;;;;7.45;4.60;;;;;;;;;;2106016;28;20024;-77
2024/03/06 05:47:21;;;;;;;13.25;5.43;;;;;;;;;;2096077;28;20032;-75
2024/03/06 05:48:40;;;;;;;9.93;5.05;;;;;;;;;;2102107;28;20028;-76
2024/03/06 05:49:59;;;;;;;10.73;5.50;;;;;;;;;;2104400;28;20016;-74
2024/03/06 05:51:18;;;;;;;15.25;5.53;;;;;;;;;;2104422;28;20044;-76
2024/03/06 05:52:37;;;;;;;10.15;5.38;;;;;;;;;;2096354;28;20461;-76
2024/03/06 05:53:56;;;;;;;5.28;4.45;;;;;;;;;;2102416;28;20040;-76
2024/03/06 05:55:15;;;;;;;6.50;4.72;;;;;;;;;;2105946;28;20024;-75
2024/03/06 05:56:34;;;;;;;9.30;4.60;;;;;;;;;;2105276;28;20020;-76
2024/03/06 05:57:53;;;;;;;12.20;4.78;;;;;;;;;;2104288;28;20028;-76
2024/03/06 05:59:13;;;;;;;10.13;4.97;;;;;;;;;;2094791;28;20024;-75
2024/03/06 06:00:31;;;;;;;10.32;4.80;;;;;;;;;;2101503;28;20036;-75
2024/03/06 06:01:50;;;;;;;8.98;4.65;;;;;;;;;;2095997;28;20060;-78
2024/03/06 06:03:12;;;;;;;10.65;5.43;;;;;;;;;;2102039;28;20020;-75
2024/03/06 06:04:31;;;;;;;7.55;4.43;;;;;;;;;;2105572;28;20037;-75
2024/03/06 06:05:50;;;;;;;7.65;4.25;;;;;;;;;;2105821;28;20032;-78
2024/03/06 06:07:09;;;;;;;7.80;4.25;;;;;;;;;;2095890;28;20028;-78
2024/03/06 06:08:28;;;;;;;6.75;4.70;;;;;;;;;;2101761;28;20020;-75
2024/03/06 06:09:47;;;;;;;7.00;4.25;;;;;;;;;;2106001;28;20024;-74
2024/03/06 06:11:07;;;;;;;6.22;3.88;;;;;;;;;;2104228;28;20020;-74
2024/03/06 06:12:26;;;;;;;7.57;4.15;;;;;;;;;;2095282;28;20052;-75
2024/03/06 06:13:45;;;;;;;10.73;4.65;;;;;;;;;;2102002;28;20060;-74
2024/03/06 06:15:04;;;;;;;7.30;4.38;;;;;;;;;;2106525;28;20154;-76
2024/03/06 06:16:23;;;;;;;7.38;4.70;;;;;;;;;;2096772;28;20528;-75
2024/03/06 06:17:44;;;;;;;7.65;4.72;;;;;;;;;;2101959;28;20489;-74
2024/03/06 06:19:03;;;;;;;4.95;4.07;;;;;;;;;;2104269;28;20024;-74
2024/03/06 06:20:22;;;;;;;9.98;4.38;;;;;;;;;;2103425;28;20028;-75
2024/03/06 06:21:41;;;;;;;6.78;4.38;;;;;;;;;;2096081;28;20041;-74
2024/03/06 06:23:00;;;;;;;5.53;3.78;;;;;;;;;;2102270;28;20447;-74
2024/03/06 06:24:19;;;;;;;6.10;3.80;;;;;;;;;;2104069;28;20036;-75
2024/03/06 06:25:38;;;;;;;6.30;3.53;;;;;;;;;;2102381;28;20427;-77
2024/03/06 06:26:57;;;;;;;10.80;4.38;;;;;;;;;;2102593;28;20036;-79
2024/03/06 06:28:16;;;;;;;9.02;4.50;;;;;;;;;;2103702;28;20028;-80
2024/03/06 06:29:35;;;;;;;12.18;6.75;;;;;;;;;;2103709;28;20392;-79
2024/03/06 06:30:54;;;;;;;23.05;13.77;;;;;;;;;;2103323;28;20483;-83
2024/03/06 06:32:13;;;;;;;7.05;4.80;;;;;;;;;;2093989;28;20502;-79
2024/03/06 06:33:32;;;;;;;7.68;4.45;;;;;;;;;;2089220;28;20028;-78
2024/03/06 06:34:52;;;;;;;6.10;4.22;;;;;;;;;;2093024;28;20048;-79
2024/03/06 06:36:11;;;;;;;6.93;4.20;;;;;;;;;;2099279;28;20052;-79
2024/03/06 06:37:30;;;;;;;8.25;4.60;;;;;;;;;;2104048;28;20016;-79
2024/03/06 06:38:49;;;;;;;6.32;3.80;;;;;;;;;;2101463;28;20024;-78
2024/03/06 06:40:08;;;;;;;7.05;3.85;;;;;;;;;;2093115;28;20060;-77
2024/03/06 06:41:27;;;;;;;9.82;4.43;;;;;;;;;;2099064;28;20024;-79
2024/03/06 06:42:49;;;;;;;8.30;3.80;;;;;;;;;;2102116;28;20389;-78
2024/03/06 06:44:08;;;;;;;5.60;3.80;;;;;;;;;;2103059;28;20036;-77
2024/03/06 06:45:27;;;;;;;9.60;4.40;;;;;;;;;;2102836;28;20119;-79
2024/03/06 06:46:46;;;;;;;5.70;3.70;;;;;;;;;;2102975;28;20489;-78
2024/03/06 06:48:05;;;;;;;5.65;4.25;;;;;;;;;;2103378;28;20028;-78
2024/03/06 06:49:24;;;;;;;4.85;3.67;;;;;;;;;;2104434;28;20020;-81
2024/03/06 06:50:43;;;;;;;6.32;3.97;;;;;;;;;;2104816;28;20489;-77
2024/03/06 06:52:02;;;;;;;6.93;4.05;;;;;;;;;;2095417;28;20060;-77
2024/03/06 06:53:21;;;;;;;6.20;3.72;;;;;;;;;;2099470;28;20048;-76
2024/03/06 06:54:40;;;;;;;8.13;3.40;;;;;;;;;;2102237;28;20044;-77
2024/03/06 06:56:01;;;;;;;6.57;3.85;;;;;;;;;;2102684;28;20128;-79
2024/03/06 06:57:20;;;;;;;7.88;3.65;;;;;;;;;;2102461;28;20385;-78
2024/03/06 06:58:42;;;;;;;6.97;4.03;;;;;;;;;;2100600;28;20035;-77
2024/03/06 07:00:22;;;;;;;6.07;3.63;;;;;;;;;;2100900;28;20032;-81
2024/03/06 07:01:41;;;;;;;9.70;4.10;;;;;;;;;;2100111;28;20063;-77
2024/03/06 07:03:00;;;;;;;7.95;3.72;;;;;;;;;;2101952;28;20527;-78
2024/03/06 07:04:20;;;;;;;9.18;3.95;;;;;;;;;;2091918;28;20025;-78
2024/03/06 07:05:41;;;;;;;6.88;3.47;;;;;;;;;;2097741;28;20024;-77
2024/03/06 07:07:00;;;;;;;6.30;3.60;;;;;;;;;;2101838;28;20061;-77
2024/03/06 07:08:19;;;;;;;7.30;3.97;;;;;;;;;;2103266;28;20537;-77
2024/03/06 07:09:38;;;;;;;5.97;3.70;;;;;;;;;;2103014;28;20111;-77
2024/03/06 07:10:57;;;;;;;4.30;3.67;;;;;;;;;;2101354;28;21711;-77
2024/03/06 07:12:16;;;;;;;5.93;3.53;;;;;;;;;;2092489;28;20024;-77
2024/03/06 07:13:34;;;;;;;7.50;3.03;;;;;;;;;;2101414;28;20524;-77
2024/03/06 07:14:53;;;;;;;7.57;2.95;;;;;;;;;;2105005;28;20036;-77
2024/03/06 07:16:12;;;;;;;7.55;3.30;;;;;;;;;;2104274;28;20028;-77
2024/03/06 07:17:31;;;;;;;5.65;3.20;;;;;;;;;;2095169;28;20016;-77
2024/03/06 07:18:50;;;;;;;5.20;3.38;;;;;;;;;;2100949;28;20123;-78
2024/03/06 07:20:10;;;;;;;9.60;3.78;;;;;;;;;;2103515;28;20085;-77
2024/03/06 07:21:29;;;;;;;10.15;3.95;;;;;;;;;;2104883;28;20044;-77
2024/03/06 07:22:48;;;;;;;7.05;3.53;;;;;;;;;;2104586;28;20477;-77
2024/03/06 07:24:07;;;;;;;9.02;3.22;;;;;;;;;;2104624;28;20032;-77
2024/03/06 07:25:26;;;;;;;4.65;2.95;;;;;;;;;;2103908;28;20094;-77
2024/03/06 07:26:45;;;;;;;6.53;3.03;;;;;;;;;;2104246;28;20107;-77
2024/03/06 07:28:04;;;;;;;10.77;3.28;;;;;;;;;;2104319;28;20032;-76
2024/03/06 07:29:23;;;;;;;7.25;3.05;;;;;;;;;;2104678;28;20032;-76
2024/03/06 07:30:42;;;;;;;3.22;2.60;;;;;;;;;;2105031;28;20024;-77
2024/03/06 07:32:01;;;;;;;6.43;2.97;;;;;;;;;;2096134;28;20103;-77
2024/03/06 07:33:20;;;;;;;10.90;3.45;;;;;;;;;;2101016;28;20412;-76
2024/03/06 07:34:39;;;;;;;5.35;3.80;;;;;;;;;;2095469;28;20509;-76
2024/03/06 07:35:58;;;;;;;6.75;3.78;;;;;;;;;;2100717;28;20032;-76
2024/03/06 07:37:17;;;;;;;9.30;3.47;;;;;;;;;;2105621;28;20028;-75
2024/03/06 07:38:36;;;;;;;4.78;3.17;;;;;;;;;;2104380;28;20036;-75
2024/03/06 07:39:55;;;;;;;7.75;3.50;;;;;;;;;;2095611;28;20032;-75
2024/03/06 07:41:14;;;;;;;5.78;2.70;;;;;;;;;;2101234;28;20551;-75
2024/03/06 07:42:33;;;;;;;9.65;3.15;;;;;;;;;;2105465;28;20032;-74
2024/03/06 07:43:52;;;;;;;9.40;2.97;;;;;;;;;;2105012;28;20028;-75
2024/03/06 07:45:11;;;;;;;6.28;3.10;;;;;;;;;;2104696;28;20024;-74
2024/03/06 07:46:30;;;;;;;4.25;3.28;;;;;;;;;;2104347;28;20024;-76
2024/03/06 07:47:48;;;;;;;4.25;2.90;;;;;;;;;;2104448;28;20032;-76
2024/03/06 07:49:07;;;;;;;7.15;2.47;;;;;;;;;;2096930;28;20505;-79
2024/03/06 07:50:27;;;;;;;7.05;2.90;;;;;;;;;;2092723;28;20056;-76
2024/03/06 07:51:46;;;;;;;5.05;2.70;;;;;;;;;;2098868;28;20016;-77
2024/03/06 07:53:05;;;;;;;4.20;2.17;;;;;;;;;;2103744;28;20040;-76